Time;durP1;ratioP1;P1;durP2;ratioP2;P2;SDS_P1;SDS_P2;PMS_P1;PMS_P2;Temp;Humidity;BMP_temperature;BMP_pressure;BME280_temperature;BME280_humidity;BME280_pressure;Samples;Min_cycle;Max_cycle;Signal;HPM_P1;HPM_P2
2022/12/22 03:25:53;;;;;;;24.47;18.93;;;7.50;99.90;;;7.30;92.50;97276.50;5027321;28;20454;-77
2022/12/22 03:28:21;;;;;;;23.17;18.50;;;7.60;99.90;;;7.30;92.89;97270.31;5031645;28;20462;-79
2022/12/22 03:30:57;;;;;;;24.30;19.40;;;7.60;99.90;;;7.30;92.83;97276.50;5033016;28;20442;-77
2022/12/22 03:33:26;;;;;;;27.53;21.10;;;7.60;99.90;;;7.28;92.94;97267.00;5032941;28;20521;-79
2022/12/22 03:35:54;;;;;;;25.27;20.77;;;7.60;99.90;;;7.28;93.16;97275.06;5030768;28;20506;-79
2022/12/22 03:38:21;;;;;;;28.80;21.90;;;7.60;99.90;;;7.34;92.63;97276.91;5034625;28;20492;-77
2022/12/22 03:40:48;;;;;;;25.27;19.27;;;7.60;99.90;;;7.37;92.67;97271.94;5034536;28;20462;-81
2022/12/22 03:51:32;;;;;;;25.13;20.27;;;7.70;99.90;;;7.50;92.95;97257.63;5032734;28;20784;-80
2022/12/22 03:53:59;;;;;;;21.93;18.57;;;7.70;99.90;;;7.65;92.09;97246.56;5033057;28;20816;-80
2022/12/22 03:56:27;;;;;;;27.60;22.03;;;7.70;99.90;;;7.67;92.06;97256.31;5033128;28;20498;-79
2022/12/22 03:58:54;;;;;;;28.70;20.57;;;7.70;99.90;;;7.63;91.91;97255.91;5034759;28;20465;-78
2022/12/22 04:01:22;;;;;;;28.43;22.63;;;7.80;99.90;;;7.73;91.77;97247.38;5034184;28;20593;-79
2022/12/22 04:03:51;;;;;;;24.07;19.47;;;7.80;99.90;;;7.60;92.12;97242.91;5025448;28;20509;-79
2022/12/22 04:06:19;;;;;;;26.30;20.90;;;7.80;99.90;;;7.53;93.33;97240.25;5033620;28;20460;-78
2022/12/22 04:08:46;;;;;;;22.53;18.83;;;7.80;99.90;;;7.62;92.53;97246.19;5034316;28;20448;-78
2022/12/22 04:14:00;;;;;;;30.50;21.67;;;7.80;99.90;;;7.46;93.70;97221.47;5033747;28;20459;-78
2022/12/22 04:16:27;;;;;;;25.00;19.80;;;7.80;99.90;;;7.64;93.61;97228.78;5032641;28;20558;-77
2022/12/22 04:18:56;;;;;;;25.57;19.43;;;7.80;99.90;;;7.71;92.56;97239.50;5030633;28;20463;-78
2022/12/22 04:21:23;;;;;;;23.60;19.60;;;7.90;99.90;;;7.75;92.36;97231.84;5033975;28;20685;-78
2022/12/22 04:23:51;;;;;;;24.67;18.30;;;7.90;99.90;;;7.67;92.94;97235.59;5033967;28;20453;-79
2022/12/22 04:26:18;;;;;;;24.00;19.87;;;7.90;99.90;;;7.72;92.83;97229.59;5031853;28;20458;-79
2022/12/22 04:28:45;;;;;;;23.73;18.70;;;7.90;99.90;;;7.87;91.80;97232.78;5033841;28;20448;-78
2022/12/22 04:31:13;;;;;;;22.10;17.30;;;7.90;99.90;;;7.77;91.18;97232.44;5032547;28;20451;-78
2022/12/22 04:33:40;;;;;;;23.57;18.40;;;7.90;99.90;;;7.76;92.96;97225.41;5031109;28;20971;-79
2022/12/22 04:36:10;;;;;;;23.00;19.00;;;7.90;99.90;;;7.75;92.96;97218.38;5034056;28;20503;-78
2022/12/22 04:38:38;;;;;;;23.93;18.37;;;7.90;99.90;;;7.68;92.76;97217.63;5038375;28;20442;-78
2022/12/22 04:41:05;;;;;;;25.97;19.77;;;7.90;99.90;;;7.54;93.88;97220.38;5044043;28;20473;-76
2022/12/22 04:43:33;;;;;;;23.43;18.40;;;7.80;99.90;;;7.69;93.75;97209.31;5052727;28;20466;-78
2022/12/22 04:46:00;;;;;;;24.37;18.10;;;7.90;99.90;;;7.48;93.42;97199.72;5050463;28;20486;-78
2022/12/22 04:48:29;;;;;;;27.00;19.20;;;7.80;99.90;;;7.51;94.00;97202.00;5035150;28;20447;-78
2022/12/22 04:50:59;;;;;;;20.70;17.93;;;7.80;99.90;;;7.59;93.77;97201.72;5031998;28;20455;-77
2022/12/22 04:53:30;;;;;;;22.07;18.73;;;7.80;99.90;;;7.62;94.32;97193.22;5032296;28;20492;-79
2022/12/22 04:55:59;;;;;;;20.23;17.87;;;7.80;99.90;;;7.58;94.04;97185.81;5032931;28;20574;-78
2022/12/22 04:58:27;;;;;;;23.10;19.43;;;7.80;99.90;;;7.58;93.78;97197.41;5033507;28;20465;-80
2022/12/22 05:00:55;;;;;;;24.20;18.20;;;7.90;99.90;;;7.78;92.75;97191.91;5032968;28;20529;-77
2022/12/22 05:03:23;;;;;;;26.20;19.77;;;7.90;99.90;;;7.64;92.92;97188.44;5032056;28;20461;-80
2022/12/22 05:05:51;;;;;;;23.17;17.90;;;7.90;99.90;;;7.65;92.95;97176.66;5029550;28;20973;-79
2022/12/22 05:08:18;;;;;;;21.93;18.63;;;7.90;99.90;;;7.55;93.20;97176.34;5033212;28;20459;-79
2022/12/22 05:10:47;;;;;;;21.60;17.73;;;7.90;99.90;;;7.65;92.73;97179.34;5028985;28;20572;-79
2022/12/22 05:13:14;;;;;;;22.50;19.20;;;7.90;99.90;;;7.73;92.87;97185.50;5031852;28;20451;-78
2022/12/22 05:15:41;;;;;;;21.43;18.73;;;7.90;99.90;;;7.67;92.87;97183.72;5031539;28;20498;-78
2022/12/22 05:18:08;;;;;;;21.40;17.80;;;7.90;99.90;;;7.64;92.63;97185.75;5033170;28;20500;-80
2022/12/22 05:20:36;;;;;;;20.97;17.70;;;7.90;99.90;;;7.54;92.80;97189.97;5031530;28;20459;-78
2022/12/22 05:23:03;;;;;;;21.60;17.73;;;7.80;99.90;;;7.47;93.93;97181.94;5032871;28;20486;-78
2022/12/22 05:25:30;;;;;;;19.87;16.50;;;7.70;99.90;;;7.52;93.19;97182.16;5030935;28;20984;-80
2022/12/22 05:27:59;;;;;;;19.97;17.27;;;7.70;99.90;;;7.58;93.05;97170.50;5031504;28;20451;-76
2022/12/22 05:30:26;;;;;;;20.27;16.47;;;7.70;99.90;;;7.65;92.62;97165.09;5032731;28;20489;-79
2022/12/22 05:32:53;;;;;;;19.57;16.70;;;7.80;99.90;;;7.53;93.78;97178.41;5031313;28;20462;-80
2022/12/22 05:35:20;;;;;;;21.10;16.20;;;7.80;99.90;;;7.62;93.06;97158.28;5030257;28;20976;-79
2022/12/22 05:37:47;;;;;;;17.80;14.70;;;7.80;99.90;;;7.68;92.26;97148.53;5031034;28;20455;-79
2022/12/22 05:40:14;;;;;;;20.30;15.57;;;7.90;99.90;;;7.77;92.13;97155.28;5030597;28;20517;-78
2022/12/22 05:42:42;;;;;;;19.47;15.80;;;8.00;99.90;;;7.68;92.38;97153.09;5030327;28;20524;-78
2022/12/22 05:45:14;;;;;;;18.73;15.53;;;7.90;99.90;;;7.66;92.46;97161.38;5031650;28;20458;-79
2022/12/22 05:47:43;;;;;;;20.93;16.03;;;7.90;99.90;;;7.77;92.56;97162.53;5032422;28;20457;-79
2022/12/22 05:50:12;;;;;;;17.03;14.20;;;8.00;99.90;;;7.86;91.71;97169.28;5029819;28;20492;-79
2022/12/22 05:52:40;;;;;;;17.00;14.97;;;8.00;99.90;;;7.85;91.60;97174.88;5030471;28;20490;-80
2022/12/22 05:55:09;;;;;;;18.10;14.17;;;8.00;99.90;;;7.90;92.04;97167.81;5029077;28;20783;-79
2022/12/22 05:57:36;;;;;;;17.37;15.50;;;8.00;99.90;;;7.71;92.29;97169.59;5042088;28;20883;-78
2022/12/22 06:00:04;;;;;;;16.63;14.83;;;8.00;99.90;;;7.77;91.93;97175.97;5023923;28;20490;-77
2022/12/22 06:02:33;;;;;;;16.97;14.20;;;8.00;99.90;;;7.75;91.90;97175.38;5030888;28;20947;-79
2022/12/22 06:05:00;;;;;;;18.27;13.63;;;8.00;99.90;;;7.77;91.81;97174.13;5029499;28;20494;-80
2022/12/22 06:07:28;;;;;;;15.40;13.70;;;8.00;99.90;;;7.87;91.23;97170.09;5032071;28;21003;-80
2022/12/22 06:09:55;;;;;;;15.27;12.77;;;8.10;99.90;;;7.85;91.43;97191.84;5032110;28;20499;-76
2022/12/22 06:12:22;;;;;;;17.87;13.00;;;8.10;99.90;;;7.97;90.50;97183.09;5028304;28;20532;-80
2022/12/22 06:14:49;;;;;;;16.37;13.53;;;8.10;99.90;;;7.91;90.09;97174.81;5030812;28;20490;-78
2022/12/22 06:17:16;;;;;;;16.40;12.60;;;8.10;99.90;;;7.82;90.94;97173.47;5029534;28;20556;-78
2022/12/22 06:19:45;;;;;;;18.23;12.63;;;8.10;99.90;;;7.84;90.83;97152.56;5029967;28;20865;-75
2022/12/22 06:22:12;;;;;;;16.63;12.77;;;8.00;99.90;;;8.16;90.49;97154.34;5028196;28;21033;-78
2022/12/22 06:24:39;;;;;;;14.90;12.93;;;8.20;99.90;;;8.07;89.97;97159.19;5030412;28;20454;-77
2022/12/22 06:27:06;;;;;;;15.60;12.60;;;8.20;99.90;;;8.02;90.21;97167.09;5032030;28;20501;-79
2022/12/22 06:29:34;;;;;;;16.23;14.20;;;8.20;99.90;;;7.94;90.12;97152.06;5030479;28;20824;-78
2022/12/22 06:32:01;;;;;;;15.30;11.87;;;8.10;99.90;;;8.14;90.40;97165.34;5027270;28;20803;-78
2022/12/22 06:34:28;;;;;;;14.60;11.90;;;8.20;99.90;;;8.08;89.83;97166.19;5030528;28;20494;-78
2022/12/22 06:36:57;;;;;;;14.13;12.10;;;8.20;99.90;;;8.10;89.79;97158.72;5029291;28;21065;-78
2022/12/22 06:39:24;;;;;;;12.80;11.50;;;8.20;99.90;;;8.08;90.60;97152.75;5030615;28;20482;-81
2022/12/22 06:44:36;;;;;;;14.27;11.33;;;8.20;99.90;;;8.11;90.39;97146.13;5030577;28;20815;-77
2022/12/22 06:47:03;;;;;;;13.67;12.23;;;8.20;99.90;;;8.10;89.50;97147.16;5028263;28;20496;-79
2022/12/22 06:49:30;;;;;;;12.90;11.60;;;8.30;99.90;;;8.02;90.33;97148.25;5030025;28;20520;-78
2022/12/22 06:51:59;;;;;;;13.00;11.63;;;8.30;99.90;;;8.01;91.38;97147.44;5022530;28;20514;-81
2022/12/22 06:54:26;;;;;;;13.13;11.70;;;8.30;99.90;;;8.13;90.73;97149.41;5030449;28;20737;-81
2022/12/22 06:56:53;;;;;;;14.10;11.17;;;8.30;99.90;;;8.25;90.33;97146.81;5029444;28;20476;-79
2022/12/22 06:59:21;;;;;;;14.83;12.37;;;8.40;99.90;;;8.18;89.87;97153.09;5029779;28;20959;-79
2022/12/22 07:01:48;;;;;;;14.33;12.47;;;8.40;99.90;;;8.23;90.39;97155.91;5027242;28;20454;-79
2022/12/22 07:04:19;;;;;;;13.27;11.27;;;8.40;99.90;;;8.35;89.62;97147.13;5030053;28;20518;-79
2022/12/22 07:06:47;;;;;;;13.07;11.80;;;8.40;99.90;;;8.25;90.22;97153.03;5029379;28;20609;-80
2022/12/22 07:09:15;;;;;;;13.37;12.00;;;8.40;99.90;;;8.19;91.13;97145.84;5030585;28;20935;-79
2022/12/22 07:11:42;;;;;;;14.30;12.20;;;8.30;99.90;;;8.08;92.01;97147.38;5032011;28;20488;-78
2022/12/22 07:14:11;;;;;;;16.50;13.70;;;8.30;99.90;;;8.19;92.44;97151.22;5037566;28;20446;-77
2022/12/22 07:16:38;;;;;;;12.93;11.53;;;8.30;99.90;;;8.10;92.35;97150.66;5042447;28;20474;-78
2022/12/22 07:19:05;;;;;;;13.23;11.83;;;8.30;99.90;;;8.12;93.05;97142.38;5039115;28;20490;-79
2022/12/22 07:21:32;;;;;;;18.17;12.57;;;8.30;99.90;;;7.89;91.98;97088.16;5031410;28;20484;-79
2022/12/22 07:24:00;;;;;;;13.93;11.37;;;8.30;99.90;;;8.11;93.00;97140.72;5030758;28;20502;-79
2022/12/22 07:26:28;;;;;;;13.97;11.30;;;8.30;99.90;;;8.07;92.69;97143.03;5030451;28;20493;-80
2022/12/22 07:28:55;;;;;;;16.63;13.67;;;8.20;99.90;;;8.19;92.89;97146.66;5031174;28;20479;-79
2022/12/22 07:31:23;;;;;;;16.03;12.93;;;8.30;99.90;;;8.22;92.98;97146.19;5030837;28;20473;-80
2022/12/22 07:33:51;;;;;;;15.33;12.40;;;8.30;99.90;;;8.12;93.41;97124.38;5024984;28;20454;-78
2022/12/22 07:36:20;;;;;;;13.40;12.00;;;8.30;99.90;;;8.18;93.51;97147.69;5028093;28;20597;-78
2022/12/22 07:38:50;;;;;;;15.80;13.47;;;8.30;99.90;;;8.38;92.17;97148.56;5030604;28;20512;-78
2022/12/22 07:44:11;;;;;;;15.43;13.13;;;8.40;99.90;;;8.29;92.22;97137.25;4973494;28;20460;-78
2022/12/22 07:46:39;;;;;;;13.93;12.47;;;8.40;99.90;;;8.35;92.16;97136.34;5033572;28;20515;-78
2022/12/22 07:51:56;;;;;;;12.13;10.93;;;8.40;99.90;;;8.18;92.78;97119.94;5026190;28;20974;-78
2022/12/22 07:54:23;;;;;;;13.50;10.77;;;8.50;99.90;;;8.34;92.51;97123.94;5020862;28;20773;-78
2022/12/22 07:56:51;;;;;;;13.07;11.10;;;8.50;99.90;;;8.53;91.67;97140.13;5028968;28;21011;-81
2022/12/22 07:59:20;;;;;;;15.47;11.63;;;8.60;99.90;;;8.39;91.29;97129.47;5030701;28;20529;-81
2022/12/22 08:01:47;;;;;;;13.27;9.53;;;8.60;99.90;;;8.62;90.14;97119.97;5030373;28;20464;-80
2022/12/22 08:04:15;;;;;;;12.83;10.33;;;8.70;99.90;;;8.48;90.85;97125.47;5026783;28;20489;-80
2022/12/22 08:06:42;;;;;;;10.30;9.30;;;8.70;99.90;;;8.57;90.79;97127.88;5028567;28;20962;-80
2022/12/22 08:09:14;;;;;;;11.40;10.03;;;8.70;99.90;;;8.52;90.09;97125.88;5028909;28;20504;-77
2022/12/22 08:11:41;;;;;;;10.60;9.60;;;8.70;99.90;;;8.60;90.25;97122.06;5028436;28;20947;-80
2022/12/22 08:14:08;;;;;;;10.67;8.57;;;8.80;99.90;;;8.64;90.56;97121.38;5031913;28;20963;-78
2022/12/22 08:16:37;;;;;;;10.33;8.00;;;8.90;99.90;;;8.68;89.53;97119.03;5030443;28;20521;-80
2022/12/22 08:19:04;;;;;;;9.13;7.90;;;8.90;99.90;;;8.71;89.41;97115.91;5024626;28;20869;-80
2022/12/22 08:21:31;;;;;;;9.13;8.10;;;8.90;99.90;;;8.76;88.71;97121.44;5032933;28;20538;-78
2022/12/22 08:23:58;;;;;;;9.10;7.73;;;9.00;99.60;;;8.70;89.56;97132.28;5029209;28;20458;-78
2022/12/22 08:26:33;;;;;;;9.47;8.30;;;8.90;99.70;;;8.79;88.96;97122.84;5033812;28;20462;-79
2022/12/22 08:29:07;;;;;;;12.87;9.80;;;8.90;99.40;;;8.76;88.22;97129.53;5033778;28;20443;-80
2022/12/22 08:31:35;;;;;;;12.03;8.87;;;9.00;98.60;;;8.83;88.58;97125.91;5034152;28;20453;-80
2022/12/22 08:34:06;;;;;;;7.53;6.93;;;9.00;98.30;;;8.79;87.76;97131.75;5032735;28;20475;-79
2022/12/22 08:36:38;;;;;;;8.70;6.77;;;9.00;97.80;;;8.79;87.88;97120.16;5029778;28;20498;-78
2022/12/22 08:39:07;;;;;;;7.63;6.93;;;9.00;97.20;;;8.90;87.38;97115.91;5032213;28;20455;-79
2022/12/22 08:41:51;;;;;;;8.17;6.33;;;9.10;97.50;;;8.78;87.88;97103.19;5033442;28;20497;-79
2022/12/22 08:44:23;;;;;;;6.60;5.67;;;9.10;97.10;;;9.09;87.48;97113.97;5031580;28;20460;-81
2022/12/22 08:46:52;;;;;;;6.03;5.10;;;9.20;97.30;;;9.11;85.99;97116.44;5033886;28;20483;-80
2022/12/22 08:49:21;;;;;;;5.83;5.33;;;9.30;96.40;;;9.04;86.16;97098.50;5031910;28;20939;-80
2022/12/22 08:51:48;;;;;;;7.37;5.57;;;9.30;96.10;;;8.95;86.81;97113.34;5031380;28;20452;-80
2022/12/22 08:54:16;;;;;;;6.07;4.43;;;9.30;96.00;;;9.25;85.53;97112.53;5030607;28;20962;-76
2022/12/22 08:56:45;;;;;;;4.97;4.23;;;9.30;95.90;;;9.33;85.64;97114.06;5033035;28;20473;-80
2022/12/22 08:59:13;;;;;;;4.30;3.83;;;9.40;95.40;;;9.29;85.16;97105.63;5033393;28;20499;-79
2022/12/22 09:01:49;;;;;;;11.07;6.70;;;9.50;94.80;;;9.44;84.26;97098.97;5033091;28;20441;-79
2022/12/22 09:04:20;;;;;;;5.33;3.97;;;9.70;94.00;;;9.56;83.90;97107.91;5030716;28;20578;-78
2022/12/22 09:06:51;;;;;;;4.97;3.57;;;9.70;93.60;;;9.50;83.33;97104.28;5029634;28;20576;-82
2022/12/22 09:09:18;;;;;;;5.33;4.00;;;9.80;93.20;;;9.86;82.46;97117.81;5031804;28;21070;-81
2022/12/22 09:11:45;;;;;;;6.20;5.10;;;9.90;93.10;;;10.07;81.92;97118.28;5030418;28;20454;-81
2022/12/22 09:14:13;;;;;;;5.47;4.13;;;10.10;92.60;;;10.03;82.73;97111.72;5032565;28;20941;-81
2022/12/22 09:16:40;;;;;;;6.90;4.10;;;10.20;92.10;;;10.25;80.57;97113.88;5031692;28;20565;-80
2022/12/22 09:19:09;;;;;;;3.70;2.73;;;10.30;91.20;;;9.99;81.74;97115.97;5030269;28;20450;-78
2022/12/22 09:21:37;;;;;;;3.67;2.70;;;10.20;91.00;;;10.00;81.43;97106.81;5029091;28;20972;-82
2022/12/22 09:24:06;;;;;;;4.03;2.73;;;10.30;91.00;;;10.35;79.99;97111.38;5028232;28;20675;-81
2022/12/22 09:26:33;;;;;;;3.27;2.97;;;10.50;90.30;;;10.85;77.96;97109.22;5029055;28;20469;-79
2022/12/22 09:29:01;;;;;;;8.50;5.27;;;10.80;89.70;;;10.81;77.55;97100.75;5032910;28;20457;-79
2022/12/22 09:31:29;;;;;;;3.13;2.40;;;10.90;88.70;;;10.58;77.21;97101.63;5034061;28;20849;-80
2022/12/22 09:33:57;;;;;;;3.53;2.40;;;10.90;87.70;;;10.37;78.15;97098.44;5029614;28;20479;-82
2022/12/22 09:36:27;;;;;;;4.17;2.33;;;10.80;87.90;;;10.79;77.35;97113.69;5046386;28;20473;-79
2022/12/22 09:38:56;;;;;;;2.60;2.23;;;10.90;88.10;;;10.85;76.79;97111.91;5032425;28;20440;-79
2022/12/22 09:41:31;;;;;;;3.53;2.20;;;11.00;87.80;;;10.84;76.64;97121.06;5031228;28;20818;-81
2022/12/22 09:44:02;;;;;;;5.30;3.13;;;11.00;87.50;;;10.63;77.15;97107.13;5032725;28;20482;-79
2022/12/22 09:46:32;;;;;;;4.20;3.13;;;10.90;87.60;;;10.59;77.14;97108.69;5032330;28;20455;-81
2022/12/22 09:48:59;;;;;;;4.90;2.93;;;10.80;87.50;;;10.77;76.42;97116.63;5035936;28;20452;-80
2022/12/22 09:51:27;;;;;;;5.87;4.40;;;10.80;87.50;;;10.46;77.51;97105.16;5055600;28;20508;-79
2022/12/22 09:53:59;;;;;;;4.90;2.50;;;10.70;87.50;;;10.67;76.89;97116.41;5044408;28;20985;-78
2022/12/22 09:56:28;;;;;;;5.60;2.03;;;10.70;87.60;;;10.31;76.64;97058.91;5035052;28;20477;-79
2022/12/22 09:58:57;;;;;;;6.43;1.73;;;10.70;87.40;;;10.68;76.87;97115.34;5033905;28;20511;-80
2022/12/22 10:01:55;;;;;;;4.97;2.57;;;10.80;87.50;;;10.52;76.76;97107.97;5031337;28;20499;-81
2022/12/22 10:04:39;;;;;;;5.80;2.60;;;10.70;87.40;;;10.93;76.02;97100.72;5011824;28;20445;-79
2022/12/22 10:07:18;;;;;;;7.67;3.47;;;10.80;87.30;;;11.23;74.27;97091.53;5025137;28;20446;-79
2022/12/22 10:09:47;;;;;;;3.97;2.30;;;11.20;86.70;;;11.24;74.42;97097.78;5030806;28;20454;-80
2022/12/22 10:12:17;;;;;;;4.30;2.80;;;11.30;86.20;;;10.71;74.68;97036.53;5029553;28;20502;-81
2022/12/22 10:14:47;;;;;;;7.50;2.37;;;11.30;85.90;;;10.91;75.20;97089.31;5031461;28;20454;-81
2022/12/22 10:17:18;;;;;;;2.40;1.90;;;11.10;85.80;;;10.90;74.95;97093.09;5031768;28;21233;-80
2022/12/22 10:19:47;;;;;;;8.60;5.13;;;11.10;85.80;;;10.73;75.78;97088.44;5029310;28;20461;-80
2022/12/22 10:22:26;;;;;;;3.20;2.20;;;11.00;85.80;;;10.67;75.83;97080.47;5031650;28;20522;-80
2022/12/22 10:24:55;;;;;;;3.20;2.30;;;10.90;85.90;;;10.27;75.91;97025.34;5031558;28;20532;-79
2022/12/22 10:27:27;;;;;;;3.67;2.50;;;10.80;86.20;;;10.51;75.55;97072.06;5033681;28;20456;-80
2022/12/22 10:29:54;;;;;;;3.73;2.17;;;10.80;86.10;;;10.58;75.85;97080.84;5033421;28;20453;-78
2022/12/22 10:32:21;;;;;;;7.83;3.23;;;10.70;86.10;;;10.41;75.90;97075.38;5031970;28;20455;-82
2022/12/22 10:35:05;;;;;;;6.90;2.70;;;10.70;86.10;;;10.72;75.38;97086.81;5033167;28;20557;-81
2022/12/22 10:37:35;;;;;;;2.30;1.90;;;10.80;86.30;;;10.78;74.68;97068.81;5028430;28;20482;-79
2022/12/22 10:40:16;;;;;;;5.50;2.50;;;11.00;85.70;;;10.82;74.23;97077.25;5034096;28;20459;-81
2022/12/22 10:42:49;;;;;;;7.00;3.97;;;11.10;85.10;;;11.16;72.53;97085.47;5031345;28;20448;-81
2022/12/22 10:45:20;;;;;;;8.03;3.03;;;11.30;84.50;;;10.94;73.24;97067.22;5029135;28;20472;-81
2022/12/22 10:47:50;;;;;;;7.30;2.53;;;11.30;84.30;;;11.19;72.87;97080.38;5032526;28;20940;-81
2022/12/22 10:50:18;;;;;;;6.23;2.50;;;11.30;84.20;;;11.44;71.69;97070.25;5031093;28;20458;-81
2022/12/22 10:52:53;;;;;;;1.97;1.80;;;11.40;84.30;;;11.25;72.06;97075.91;5032663;28;20458;-81
2022/12/22 10:55:25;;;;;;;4.00;2.20;;;11.50;83.70;;;11.08;72.58;97083.16;5029882;28;20957;-83
2022/12/22 10:58:09;;;;;;;5.97;3.33;;;11.30;83.70;;;11.19;72.47;97082.28;5031369;28;21080;-79
2022/12/22 11:00:37;;;;;;;7.13;4.10;;;11.30;84.30;;;11.23;71.98;97074.53;5032062;28;20454;-79
2022/12/22 11:03:07;;;;;;;6.10;2.70;;;11.40;83.60;;;11.31;72.14;97061.41;5031114;28;20450;-78
2022/12/22 11:05:34;;;;;;;7.37;2.57;;;11.50;83.80;;;11.30;71.68;97064.34;5028851;28;20469;-82
2022/12/22 11:08:15;;;;;;;5.80;2.50;;;11.50;83.70;;;11.60;71.60;97068.66;5031775;28;20505;-79
2022/12/22 11:10:52;;;;;;;7.20;2.53;;;11.50;84.10;;;11.60;71.61;97065.94;5030150;28;20454;-81
2022/12/22 11:13:47;;;;;;;7.00;4.10;;;11.60;84.10;;;11.20;72.44;97076.63;5030317;28;21078;-81
2022/12/22 11:16:23;;;;;;;8.20;3.97;;;11.50;83.70;;;11.28;72.55;97071.91;5029839;28;20597;-80
2022/12/22 11:19:08;;;;;;;3.63;2.20;;;11.50;83.90;;;11.65;70.55;97073.34;5027260;28;20507;-80
2022/12/22 11:21:45;;;;;;;3.70;2.43;;;11.60;83.70;;;11.22;71.68;97073.69;5032059;28;20478;-80
2022/12/22 11:24:32;;;;;;;5.60;2.53;;;11.50;83.30;;;10.92;73.92;97077.47;5029724;28;20957;-80
2022/12/22 11:27:16;;;;;;;5.50;3.57;;;11.20;84.10;;;10.70;75.18;97061.91;5032074;28;20450;-80
2022/12/22 11:30:09;;;;;;;3.43;2.07;;;11.10;84.70;;;10.59;77.34;97076.25;5027573;28;20447;-80
2022/12/22 11:33:05;;;;;;;4.13;1.50;;;10.90;86.30;;;10.50;78.47;97078.53;5030158;28;20471;-81
2022/12/22 11:35:51;;;;;;;5.57;2.30;;;10.80;87.40;;;10.58;77.85;97075.44;5025031;28;20584;-76
2022/12/22 11:38:36;;;;;;;6.50;2.10;;;10.70;88.10;;;10.18;78.73;97060.78;5012191;28;20484;-79
2022/12/22 11:41:15;;;;;;;7.33;3.00;;;10.60;88.50;;;10.15;79.42;97055.88;5014888;28;20503;-81
2022/12/22 11:44:09;;;;;;;3.60;1.60;;;10.60;88.50;;;10.34;79.32;97053.03;5029960;28;20957;-82
2022/12/22 11:46:44;;;;;;;6.97;2.80;;;10.60;89.00;;;10.38;79.31;97050.69;5031932;28;20998;-81
2022/12/22 11:49:44;;;;;;;3.63;1.90;;;10.60;89.50;;;10.40;79.46;97045.84;5031740;28;20799;-81
2022/12/22 11:52:31;;;;;;;10.07;2.80;;;10.60;89.60;;;10.02;80.98;97050.72;5035952;28;20744;-81
2022/12/22 11:55:16;;;;;;;8.40;4.27;;;10.40;90.70;;;10.11;80.60;97048.47;5034511;28;20794;-79
2022/12/22 11:58:01;;;;;;;9.33;3.20;;;10.40;90.60;;;10.07;80.66;97048.13;5037014;28;20529;-76
2022/12/22 12:00:40;;;;;;;6.93;2.50;;;10.40;90.40;;;10.05;80.95;97040.28;5035887;28;20448;-77
2022/12/22 12:03:43;;;;;;;3.60;2.33;;;10.40;90.50;;;10.19;80.01;97045.44;5035844;28;20456;-75
2022/12/22 12:06:38;;;;;;;3.43;1.57;;;10.40;90.60;;;10.19;80.20;97046.25;5010937;28;20540;-82
2022/12/22 12:09:23;;;;;;;6.70;3.57;;;10.50;90.70;;;10.10;80.29;97042.28;5034902;28;20479;-80
2022/12/22 12:11:58;;;;;;;5.30;4.00;;;10.40;90.60;;;10.15;80.72;97053.19;5034214;28;20831;-82
2022/12/22 12:14:31;;;;;;;3.53;2.07;;;10.40;90.80;;;9.97;81.12;97019.03;5034618;28;20457;-81
2022/12/22 12:17:03;;;;;;;5.60;1.27;;;10.30;91.30;;;10.12;81.01;97055.53;5034265;28;20466;-79
2022/12/22 12:19:59;;;;;;;3.93;1.10;;;10.30;91.20;;;10.08;80.94;97055.16;5031900;28;20454;-79
2022/12/22 12:22:45;;;;;;;2.93;1.97;;;10.40;91.20;;;10.24;80.73;97042.03;5034119;28;20943;-81
2022/12/22 12:25:25;;;;;;;6.07;3.33;;;10.40;91.50;;;9.99;82.26;97051.19;5015702;28;20951;-79
2022/12/22 12:28:11;;;;;;;3.13;1.40;;;10.30;92.00;;;10.08;82.54;97063.25;5016042;28;20454;-79
2022/12/22 12:30:51;;;;;;;4.20;2.00;;;10.30;92.50;;;9.87;83.27;97057.41;5031159;28;20459;-78
2022/12/22 12:33:30;;;;;;;3.80;1.40;;;10.20;92.70;;;9.79;84.18;97060.47;5038818;28;20520;-80
2022/12/22 12:36:08;;;;;;;4.93;2.10;;;10.10;93.40;;;9.95;83.09;97060.81;5046417;28;20438;-76
2022/12/22 12:38:47;;;;;;;4.77;1.43;;;10.10;93.30;;;10.08;83.19;97065.97;5045354;28;20470;-76
2022/12/22 12:41:24;;;;;;;3.77;1.97;;;10.20;93.10;;;9.99;83.00;97062.78;5043008;28;20455;-78
2022/12/22 12:43:53;;;;;;;2.83;1.47;;;10.30;93.10;;;10.04;83.96;97064.78;5037897;28;20530;-80
2022/12/22 12:47:22;;;;;;;3.20;1.50;;;10.20;93.40;;;10.02;84.38;97066.91;5034011;28;20526;-81
2022/12/22 12:50:00;;;;;;;5.27;2.27;;;10.20;94.00;;;9.84;84.65;97063.28;4972307;28;20457;-80
2022/12/22 12:53:06;;;;;;;6.13;2.50;;;10.20;94.30;;;9.86;85.16;97071.16;4956401;28;20459;-80
2022/12/22 12:56:07;;;;;;;3.50;1.20;;;10.10;94.70;;;9.80;85.86;97070.22;5019450;28;21011;-78
2022/12/22 12:58:54;;;;;;;3.70;1.70;;;10.00;95.30;;;9.62;87.61;97077.31;5029527;28;20469;-80
2022/12/22 13:01:57;;;;;;;4.20;1.80;;;9.90;97.80;;;9.59;87.54;97068.88;5033597;28;20452;-80
2022/12/22 13:05:11;;;;;;;3.20;1.40;;;9.90;98.50;;;9.53;88.43;97070.63;5001293;28;20468;-81
2022/12/22 13:08:18;;;;;;;3.50;1.20;;;9.80;99.70;;;9.62;89.09;97074.63;5035101;28;20871;-81
2022/12/22 13:11:21;;;;;;;3.90;2.33;;;9.80;99.90;;;9.51;89.58;97072.75;5032310;28;20451;-80
2022/12/22 13:13:50;;;;;;;3.27;1.60;;;9.80;99.90;;;9.60;89.61;97082.13;5032176;28;20544;-77
2022/12/22 13:16:28;;;;;;;2.57;1.63;;;9.80;99.90;;;9.52;89.80;97085.16;5031834;28;20450;-77
2022/12/22 13:18:59;;;;;;;4.83;1.50;;;9.80;99.90;;;9.37;90.10;97093.69;5032788;28;20501;-80
2022/12/22 13:21:38;;;;;;;2.10;1.20;;;9.70;99.90;;;9.40;90.69;97090.53;5034865;28;20456;-74
2022/12/22 13:24:15;;;;;;;4.63;1.70;;;9.60;99.90;;;9.34;90.69;97084.19;5031964;28;20497;-80
2022/12/22 13:26:44;;;;;;;3.07;1.10;;;9.60;99.90;;;9.44;90.17;97098.97;5032315;28;20468;-81
2022/12/22 13:29:22;;;;;;;2.47;1.30;;;9.60;99.90;;;9.49;90.67;97107.22;5032714;28;20451;-80
2022/12/22 13:31:53;;;;;;;2.10;1.70;;;9.60;99.90;;;9.44;91.17;97104.38;5032174;28;20519;-81
2022/12/22 13:34:36;;;;;;;2.70;1.20;;;9.70;99.90;;;9.48;90.15;97106.38;5031588;28;20699;-81
2022/12/22 13:37:17;;;;;;;3.47;1.80;;;9.70;99.90;;;9.52;90.03;97120.22;5029434;28;20455;-80
2022/12/22 13:40:20;;;;;;;2.80;1.70;;;9.70;99.90;;;9.58;89.46;97122.00;5032574;28;20448;-81
2022/12/22 13:42:51;;;;;;;2.30;1.47;;;9.70;99.90;;;9.59;89.93;97123.63;5028248;28;20451;-80
2022/12/22 13:45:28;;;;;;;1.67;1.10;;;9.80;99.90;;;9.47;90.14;97126.31;5031428;28;20450;-82
2022/12/22 13:47:56;;;;;;;3.10;1.40;;;9.80;99.90;;;9.64;89.65;97137.25;5031683;28;20790;-81
2022/12/22 13:50:28;;;;;;;4.23;1.60;;;9.80;99.90;;;9.70;89.24;97129.28;5027771;28;20470;-81
2022/12/22 13:52:58;;;;;;;4.43;4.03;;;9.80;99.90;;;9.69;88.81;97133.03;5027351;28;20502;-82
2022/12/22 13:55:28;;;;;;;1.80;1.50;;;9.90;99.90;;;9.62;88.96;97139.34;5024163;28;20457;-80
2022/12/22 13:58:04;;;;;;;2.73;1.20;;;9.90;99.40;;;9.67;87.43;97156.72;5032752;28;20506;-80
2022/12/22 14:00:31;;;;;;;2.30;1.40;;;9.90;97.30;;;9.80;87.06;97155.69;5027380;28;20450;-75
2022/12/22 14:02:58;;;;;;;3.03;1.30;;;10.00;97.20;;;9.81;87.49;97158.19;5032109;28;20520;-78
2022/12/22 14:05:31;;;;;;;2.83;1.50;;;10.00;96.70;;;9.74;87.71;97160.13;5030707;28;20873;-83
2022/12/22 14:08:05;;;;;;;2.33;1.20;;;10.00;96.30;;;9.81;86.96;97158.19;5033614;28;20538;-82
2022/12/22 14:10:41;;;;;;;3.13;1.67;;;10.00;96.10;;;9.86;87.10;97161.00;5030938;28;21019;-81
2022/12/22 14:13:16;;;;;;;3.40;1.70;;;10.00;96.70;;;9.61;88.63;97145.00;5026357;28;20562;-79
2022/12/22 14:15:44;;;;;;;1.40;1.30;;;10.00;97.60;;;9.68;87.95;97169.16;5032320;28;20481;-80
2022/12/22 14:18:16;;;;;;;5.97;1.90;;;10.00;97.30;;;9.61;89.38;97182.75;5032548;28;20529;-79
2022/12/22 14:20:46;;;;;;;3.63;1.20;;;9.90;99.10;;;9.59;89.72;97188.34;5031699;28;20466;-80
2022/12/22 14:23:21;;;;;;;4.03;2.00;;;9.90;99.90;;;9.53;89.82;97188.44;5031711;28;20983;-81
2022/12/22 14:25:51;;;;;;;3.13;1.30;;;9.80;99.90;;;9.47;89.85;97190.19;5030917;28;20824;-79
2022/12/22 14:28:23;;;;;;;3.63;1.80;;;9.80;99.90;;;9.59;89.49;97191.06;5031918;28;20999;-81
2022/12/22 14:30:53;;;;;;;3.00;1.70;;;9.80;99.90;;;9.47;89.40;97206.34;5032041;28;20446;-81